KSAC/SAC METAR and TAF weather

Enter ICAO airport designator
Station Type Date Time Source
KSAC METAR 2020/10/20 17:53 UTC NOAA

KSAC 201753Z 00000KT 10SM CLR 22/08 A2991 RMK AO2 SLP127 T02220078 10228 20117 50003 $


Station Type Date Time Source
KSAC Decoded METAR 2020/10/20 17:53 UTC NOAA

SACRAMENTO EXECUTIVE AIRPORT , CA, United States (KSAC) 38-30N 121-30W 11M
Oct 20, 2020 - 01:53 PM EDT / 2020.10.20 1753 UTC
Wind: Calm:0
Visibility: 10 mile(s):0
Sky conditions: clear
Temperature: 72.0 F (22.2 C)
Dew Point: 46.0 F (7.8 C)
Relative Humidity: 39%
Pressure (altimeter): 29.91 in. Hg (1012 hPa)
Pressure tendency: 0.01 inches (0.3 hPa) higher than three hours ago
ob: KSAC 201753Z 00000KT 10SM CLR 22/08 A2991 RMK AO2 SLP127 T02220078 10228 20117 50003
cycle: 18

Station Type Date Time Source
KSAC TAF 2020/10/20 18:24 UTC NOAA

TAF KSAC 201722Z 2018/2118 VRB04KT P6SM FEW250

Example: see airport list